NCAR-RAP Real-Time Weather Data

Output produced by METARs form (17 October 2018  17:10 UTC)
found at http://weather.rap.ucar.edu/surface/
 
ROAH 171700Z 04006KT 9999 FEW015 BKN040 23/18 Q1012 RMK 1CU015 6SC040 A2989
ROAH 171630Z 04006KT 010V080 9999 FEW015 BKN040 23/18 Q1012 RMK 1CU015 6SC040 A2989
ROAH 171600Z 04008KT 9999 FEW015 BKN040 23/18 Q1012 RMK 1CU015 6SC040 A2989
ROAH 171530Z 05011KT 9999 FEW015 BKN038 23/17 Q1011 RMK 1CU015 6SC038 A2988
ROAH 171500Z 04008KT 9999 FEW015 BKN035 23/18 Q1012 RMK 1CU015 6SC035 A2990
ROAH 171430Z 04010KT 9999 FEW015 BKN035 23/18 Q1012 RMK 1CU015 6SC035 A2989
ROAH 171400Z 05008KT 020V080 9999 FEW015 BKN035 23/18 Q1012 RMK 1CU015 6SC035 A2989
ROAH 171330Z 04009KT 9999 FEW015 BKN035 23/18 Q1012 RMK 1CU015 6SC035 A2990
ROAH 171300Z 04012KT 9999 FEW015 BKN030 22/19 Q1012 RMK 1CU015 6CU030 A2990
ROAH 171230Z 04010KT 9999 -RA FEW015 SCT030 BKN040 22/19 Q1012 RMK 1CU015 4CU030 6SC040 A2989
ROAH 171200Z 04011KT 020V080 9999 FEW015 SCT030 BKN060 22/19 Q1012 RMK 1CU015 3CU030 6SC060 A2988
ROAH 171130Z 03009KT 9999 FEW015 BKN060 22/19 Q1011 RMK 1CU015 6SC060 A2987
ROAH 171100Z 05011KT 020V080 9999 -RA FEW015 SCT030 BKN050 23/19 Q1011 RMK 1CU015 3CU030 6SC050 A2987
ROAH 171030Z 05009KT 9999 FEW015 BKN030 23/19 Q1011 RMK 1CU015 6CU030 A2986
ROAH 171000Z 05008KT 030V100 9999 FEW015 BKN025 23/19 Q1010 RMK 1CU015 6CU025 A2984
ROAH 170930Z 05006KT 030V120 9999 FEW015 BKN025 23/19 Q1010 RMK 1CU015 6CU025 A2984
ROAH 170900Z 06006KT 020V100 9999 FEW015 BKN025 23/19 Q1010 RMK 1CU015 6CU025 A2983
ROAH 170830Z 04007KT 9999 FEW015 BKN025 23/19 Q1010 RMK 1CU015 6CU025 A2983
ROAH 170800Z 04007KT 360V100 9999 -RA FEW015 SCT025 BKN040 24/20 Q1010 RMK 1CU015 3CU025 6SC040 A2983
ROAH 170730Z 02009KT 9999 FEW010 BKN020 BKN080 23/20 Q1009 RMK 1CU010 6CU020 7AC080 A2982
ROAH 170700Z 03008KT 9999 VCSH FEW010 BKN020 BKN080 23/20 Q1010 RMK 2CU010 5CU020 7AC080 A2982
ROAH 170630Z VRB04KT 9999 SCT012 BKN020 BKN080 24/20 Q1009 RMK 4CU012 5CU020 7AC080 A2981
ROAH 170600Z 07005KT 040V150 9999 FEW010 BKN025 BKN080 24/21 Q1009 RMK 1CU010 5CU025 7AC080 A2979
ROAH 170530Z 09003KT 030V150 9999 -SHRA SCT008 SCT020 BKN080 23/22 Q1009 RMK 3CU008 4CU020 7AC080 A2981
ROAH 170516Z 06004KT 020V160 9999 -SHRA FEW010 SCT020 BKN080 23/22 Q1009 RMK 1CU010 3CU020 7AC080 A2981
ROAH 170500Z 03006KT 9999 SHRA FEW010 SCT050 BKN070 23/21 Q1009 RMK 1CU010 4SC050 7AC070 A2981
ROAH 170446Z 02004KT 340V100 6000 SHRA FEW010 SCT015 BKN040 23/20 Q1009 RMK 2CU010 4CU015 6SC040 A2982
ROAH 170439Z 35003KT 300V030 4000 +SHRA SCT010 BKN015 BKN070 23/20 Q1010 RMK 3CU010 5CU015 7AC070 A2983
ROAH 170430Z 32003KT 280V350 9999 SHRA FEW010 SCT015 BKN070 23/20 Q1010 RMK 2CU010 4CU015 7AC070 A2983
ROAH 170400Z VRB01KT 9999 FEW010 SCT015 BKN030 23/20 Q1010 RMK 2CU010 4CU015 6CU030 A2984
ROAH 170330Z 09004KT 040V170 9999 -SHRA FEW010 SCT020 BKN030 23/20 Q1010 RMK 2CU010 4CU020 5CU030 A2984
ROAH 170311Z 07003KT 010V110 6000 -SHRA FEW010 SCT020 BKN030 23/21 Q1010 RMK 2CU010 4CU020 6CU030 A2984
ROAH 170300Z VRB02KT 4000 -SHRA FEW010 SCT020 BKN030 22/22 Q1010 RMK 1CU010 3CU020 6CU030 A2984
ROAH 170245Z VRB02KT 3000 SHRA FEW008 SCT015 BKN030 22/21 Q1011 RMK 1ST008 4CU015 6CU030 A2986
ROAH 170230Z VRB05KT 1300 R36/1200VP1800D +SHRA FEW008 SCT025 FEW030TCU BKN050 22/20 Q1011 RMK 2ST008 4CU025 2TCU030 6SC050 A2985 TCU OHD MOV E RI++
ROAH 170211Z 36005KT 1500 R36/0900VP1800D +SHRA FEW010 SCT025 FEW030TCU BKN050 22/20 Q1011 RMK 2CU010 4CU025 1TCU030 6SC050 A2987 TCU OHD MOV E RI++
ROAH 170200Z 36005KT 330V040 3000 R36/1500VP1800N +SHRA FEW010 SCT025 FEW030TCU BKN050 23/20 Q1011 RMK 2CU010 4CU025 1TCU030 6SC050 A2987 TCU 10KM W MOV E
ROAH 170147Z 02005KT 7000 +SHRA FEW010 SCT025 FEW030TCU BKN050 23/20 Q1011 RMK 2CU010 4CU025 1TCU030 6SC050 A2986 TCU 10KM W MOV E
ROAH 170130Z 07003KT 030V110 7000 SHRA FEW008 FEW025TCU SCT030 BKN050 23/20 Q1011 RMK 1ST008 1TCU025 4CU030 6SC050 A2985 TCU 15KM W MOV E
ROAH 170100Z VRB02KT 8000 -SHRA FEW010 SCT030 BKN050 23/22 Q1011 RMK 1CU010 4CU030 6SC050 A2987
ROAH 170030Z 03005KT 010V100 8000 SHRA FEW010 SCT020 BKN050 23/20 Q1011 RMK 1CU010 4CU020 6SC050 A2986
ROAH 170019Z 03005KT 8000 SHRA FEW010 SCT020 BKN050 23/20 Q1011 RMK 1CU010 4CU020 6SC050 A2987
ROAH 170000Z 34004KT 290V020 9999 -SHRA FEW010 SCT030 BKN050 23/20 Q1011 RMK 1CU010 4CU030 6SC050 A2987
ROAH 162330Z 09003KT 030V170 6000 SHRA FEW010 SCT030 BKN080 23/20 Q1011 RMK 1CU010 3CU030 6AC080 A2986
ROAH 162320Z 36002KT 8000 SHRA FEW010 SCT030 BKN080 23/20 Q1010 RMK 1CU010 3CU030 6AC080 A2985
ROAH 162300Z VRB02KT 9999 -SHRA FEW010 SCT040 BKN120 23/20 Q1011 RMK 1CU010 3SC040 6AC120 A2986
ROAH 162230Z VRB02KT 9999 -SHRA FEW010 SCT040 BKN120 23/20 Q1011 RMK 1CU010 4SC040 7AC120 A2986
ROAH 162200Z 09004KT 040V120 8000 -SHRA FEW010 FEW030CB SCT050 BKN080 23/21 Q1011 RMK 2CU010 1CB030 3SC050 5AC080 A2985 CB N
ROAH 162147Z 10003KT 060V170 8000 -SHRA FEW010 FEW030CB SCT050 BKN080 23/21 Q1011 RMK 2CU010 1CB030 3SC050 6AC080 A2985 CB NW
ROAH 162130Z VRB02KT 8000 TSRA FEW010 FEW030CB SCT050 BKN080 23/21 Q1010 RMK 2CU010 1CB030 4SC050 6AC080 A2985 FBL TS 10KM NE MOV E
ROAH 162119Z VRB02KT 6000 -TSRA SCT010 FEW030CB BKN040 BKN070 23/20 Q1011 RMK 3CU010 2CB030 5SC040 7AC070 A2986 MOD TS 10KM NW MOV E
ROAH 162112Z 15003KT 070V210 4000 TSRA SCT010 FEW030CB BKN040 BKN070 23/20 Q1010 RMK 3CU010 2CB030 5SC040 7AC070 A2985 FBL TS 10KM W-NW MOV E
ROAH 162100Z 06004KT 020V170 6000 -SHRA SCT015 FEW030CB BKN040 BKN070 23/21 Q1010 RMK 3CU015 1CB030 5SC040 7AC070 A2983 LIGHTNING W
ROAH 162041Z 32003KT 270V020 9999 +SHRA SCT020 BKN060 BKN120 24/21 Q1010 RMK 4CU020 5SC060 7AC120 A2984 P/RR RI++
ROAH 162030Z 03002KT 9999 VCSH FEW020 SCT060 BKN120 24/21 Q1010 RMK 2CU020 3SC060 7AC120 A2982
ROAH 162000Z 03006KT 9999 VCSH FEW020 BKN120 BKN160 24/20 Q1009 RMK 1CU020 5AC120 7AC160 A2980
ROAH 161930Z 03006KT 9999 FEW020 SCT080 BKN120 24/21 Q1009 RMK 1CU020 3AC080 7AC120 A2980
ROAH 161900Z 36008KT 9999 -RA FEW020 SCT080 BKN120 24/20 Q1009 RMK 1CU020 3AC080 7AC120 A2982
ROAH 161830Z 01007KT 9999 FEW020 SCT080 BKN160 24/20 Q1010 RMK 1CU020 3AC080 6AC160 A2983
ROAH 161800Z 02006KT 9999 FEW020 SCT080 BKN160 25/20 Q1010 RMK 1CU020 3AC080 7AC160 A2983
ROAH 161730Z 02007KT 9999 FEW020 SCT070 BKN160 25/19 Q1010 RMK 1CU020 3AC070 7AC160 A2983
ROAH 161700Z 01006KT 9999 FEW020 BKN160 25/20 Q1010 RMK 1CU020 7AC160 A2984
ROAH 161630Z 36008KT 9999 FEW020 25/20 Q1010 RMK 1CU020 A2985
ROAH 161600Z 36009KT 9999 FEW020 25/20 Q1010 RMK 1CU020 A2985
ROAH 161530Z 36008KT 9999 FEW020 25/20 Q1011 RMK 1CU020 A2986
ROAH 161500Z 01005KT 9999 SCT020 25/21 Q1011 RMK 3CU020 A2986
ROAH 161430Z 36008KT 9999 FEW015 25/20 Q1011 RMK 1CU015 A2986
ROAH 161400Z 36008KT 9999 FEW015 25/20 Q1011 RMK 1CU015 A2986
ROAH 161330Z 01009KT 9999 FEW015 25/20 Q1011 RMK 1CU015 A2986
ROAH 161300Z 01009KT 9999 FEW015 25/20 Q1011 RMK 1CU015 A2986
ROAH 161230Z 35010KT 9999 FEW015 25/20 Q1011 RMK 1CU015 A2987
ROAH 161200Z 02009KT 9999 FEW015 25/21 Q1011 RMK 1CU015 A2986
ROAH 161130Z 01009KT 9999 FEW015 25/20 Q1010 RMK 1CU015 A2985
ROAH 161100Z 01010KT 9999 FEW015 BKN070 25/21 Q1010 RMK 1CU015 5AC070 A2985
ROAH 161030Z 02009KT 9999 FEW015 SCT070 25/21 Q1010 RMK 1CU015 4AC070 A2984
ROAH 161000Z 02010KT 9999 FEW015 SCT070 25/21 Q1010 RMK 2CU015 4AC070 A2984
ROAH 160930Z 01009KT 340V050 9999 FEW015 SCT060 25/21 Q1010 RMK 1CU015 4AC060 A2984
ROAH 160900Z 02009KT 9999 FEW015 SCT070 25/21 Q1010 RMK 1CU015 4AC070 A2983
ROAH 160830Z 35010KT 9999 FEW015 SCT150 25/21 Q1010 RMK 2CU015 3AC150 A2984
ROAH 160800Z 35009KT 9999 FEW015 SCT/// 26/21 Q1010
ROAH 160730Z 35009KT 9999 FEW015 SCT020 26/22 Q1009 RMK 1CU015 3CU020 A2982
ROAH 160700Z 34010KT 9999 FEW015 SCT020 26/22 Q1009 RMK 1CU015 3CU020 A2982
ROAH 160630Z 35009KT 9999 FEW015 26/21 Q1009 RMK 1CU015 A2982
ROAH 160600Z 34012KT 9999 FEW015 27/21 Q1009 RMK 1CU015 A2982
ROAH 160530Z 34010KT 9999 FEW015 27/21 Q1009 RMK 1CU015 A2982
ROAH 160500Z 35011KT 9999 FEW015 SCT140 27/22 Q1009 RMK 1CU015 3AC140 A2982
ROAH 160430Z 33010KT 9999 FEW015 SCT140 27/22 Q1010 RMK 1CU015 3AC140 A2983
ROAH 160400Z 34008KT 9999 FEW015 27/21 Q1010 RMK 1CU015 A2984
ROAH 160330Z 33008KT 290V010 9999 FEW015 27/22 Q1010 RMK 2CU015 A2984
ROAH 160300Z 30006KT 9999 FEW015 SCT/// 27/22 Q1011 RMK 1CU015 A2986
ROAH 160230Z 30007KT 9999 FEW015 SCT190 26/22 Q1011 RMK 1CU015 4AC190 A2987
ROAH 160200Z VRB02KT 9999 FEW015 BKN190 26/22 Q1011 RMK 1CU015 6AC190 A2987
ROAH 160130Z VRB02KT 9999 FEW015 SCT120 26/22 Q1012 RMK 1CU015 4AC120 A2988
ROAH 160100Z 06003KT 030V130 9999 FEW015 BKN120 26/22 Q1012 RMK 1CU015 6AC120 A2989
ROAH 160030Z 03004KT 9999 FEW015 BKN190 26/22 Q1012 RMK 1CU015 6AC190 A2989
ROAH 160000Z 04005KT 350V070 9999 FEW015 BKN200 25/21 Q1012 RMK 1CU015 5AC200 A2989
ROAH 152330Z 04005KT 9999 FEW015 SCT060 BKN180 25/21 Q1012 RMK 1CU015 3SC060 6AC180 A2989
ROAH 152300Z 03006KT 9999 FEW010 SCT040 BKN070 24/22 Q1012 RMK 1CU010 3SC040 6AC070 A2990
ROAH 152230Z 02007KT 350V110 9999 FEW010 BKN040 24/21 Q1012 RMK 1CU010 6SC040 A2989
ROAH 152200Z 02007KT 9999 FEW010 SCT045 BKN060 24/21 Q1012 RMK 1CU010 3SC045 7SC060 A2989
ROAH 152130Z 02007KT 350V060 9999 FEW009 BKN040 24/21 Q1011 RMK 1CU009 7SC040 A2988
ROAH 152100Z 03007KT 9999 FEW009 BKN040 24/22 Q1011 RMK 1CU009 6SC040 A2987
ROAH 152030Z 03007KT 9999 FEW010 BKN040 24/21 Q1011 RMK 1CU010 7SC040 A2987
ROAH 152000Z 03007KT 9999 FEW015 BKN040 24/21 Q1011 RMK 1CU015 7SC040 A2987
ROAH 151930Z 02007KT 9999 FEW015 BKN040 24/21 Q1011 RMK 1CU015 7SC040 A2986
ROAH 151900Z 03008KT 9999 FEW015 BKN040 24/21 Q1011 RMK 1CU015 6SC040 A2986
ROAH 151830Z 02005KT 9999 FEW015 BKN060 24/21 Q1011 RMK 1CU015 6SC060 A2987
ROAH 151800Z 01005KT 9999 FEW015 SCT070 23/21 Q1012 RMK 1CU015 3AC070 A2988
ROAH 151730Z 03005KT 9999 FEW015 SCT040 23/21 Q1011 RMK 1CU015 3SC040 A2988
ROAH 151700Z 04005KT 9999 FEW015 BKN035 23/21 Q1012 RMK 1CU015 5CU035 A2989
ROAH 151630Z 05006KT 010V070 9999 FEW015 BKN030 24/21 Q1012 RMK 1CU015 6CU030 A2990
ROAH 151600Z 06004KT 020V090 9999 FEW015 BKN040 24/20 Q1012 RMK 1CU015 7SC040 A2990
ROAH 151530Z 03003KT 350V080 9999 FEW010 BKN030 24/21 Q1012 RMK 1CU010 7CU030 A2991
ROAH 151500Z 04005KT 360V090 9999 FEW010 BKN032 24/21 Q1012 RMK 1CU010 6CU032 A2990
ROAH 151430Z 04007KT 010V070 9999 FEW009 SCT011 BKN032 24/21 Q1012 RMK 1CU009 3CU011 6CU032 A2990
ROAH 151400Z 03007KT 9999 FEW009 BKN011 BKN030 24/21 Q1012 RMK 1CU009 5CU011 7CU030 A2991
ROAH 151330Z 03010KT 9999 FEW009 BKN011 24/21 Q1013 RMK 1CU009 6CU011 A2991
ROAH 151300Z 04011KT 9999 FEW009 BKN011 24/21 Q1013 RMK 1CU009 6CU011 A2991
ROAH 151230Z 03009KT 9999 FEW009 BKN011 24/21 Q1013 RMK 1CU009 6CU011 A2992
ROAH 151200Z 03008KT 010V110 9999 FEW009 BKN011 BKN100 24/21 Q1013 RMK 1CU009 5CU011 7AC100 A2991
ROAH 151130Z 04006KT 360V070 9999 SCT010 BKN100 24/21 Q1012 RMK 4CU010 6AC100 A2990
ROAH 151100Z 03008KT 350V060 9999 FEW010 BKN100 24/21 Q1012 RMK 2CU010 6AC100 A2990
ROAH 151030Z 03010KT 9999 FEW009 BKN013 24/21 Q1012 RMK 1CU009 6CU013 A2990
ROAH 151000Z 02011KT 9999 FEW009 BKN013 24/22 Q1012 RMK 1CU009 6CU013 A2990
ROAH 150930Z 02010KT 9999 FEW010 BKN014 BKN032 24/21 Q1012 RMK 1CU010 5CU014 6CU032 A2990
ROAH 150900Z 05008KT 010V110 9999 FEW010 BKN032 25/22 Q1012 RMK 2CU010 7CU032 A2988
ROAH 150830Z 06009KT 020V090 9999 FEW010 BKN035 25/22 Q1011 RMK 2CU010 6CU035 A2988
ROAH 150800Z 05010KT 9999 VCSH SCT010 BKN030 25/22 Q1011 RMK 3CU010 6CU030 A2987
ROAH 150730Z 06012KT 010V100 9999 VCSH FEW010 SCT030 BKN050 25/22 Q1011 RMK 2CU010 4CU030 6SC050 A2987
ROAH 150700Z 06011KT 9999 VCSH FEW010 SCT020 BKN050 26/22 Q1011 RMK 2CU010 3CU020 5SC050 A2987
ROAH 150630Z 07011KT 9999 -SHRA FEW007 SCT010 BKN030 26/22 Q1011 RMK 1ST007 4CU010 5CU030 A2986
ROAH 150600Z 08009KT 050V110 9999 -SHRA FEW010 SCT020 BKN040 26/22 Q1011 RMK 2CU010 3CU020 6SC040 A2986
ROAH 150530Z 08008KT 050V130 9999 -SHRA FEW010 SCT020 BKN040 26/22 Q1011 RMK 1CU010 3CU020 7SC040 A2986